sensor_id;sensor_type;location;lat;lon;timestamp;temperature;humidity
34550;DHT22;66080;52.078;5.626;2023-09-19T08:48:46;17.30;99.90
34550;DHT22;66080;52.078;5.626;2023-09-19T08:51:21;17.30;99.90
34550;DHT22;66080;52.078;5.626;2023-09-19T08:54:07;17.30;99.90
34550;DHT22;66080;52.078;5.626;2023-09-19T08:56:35;17.10;99.90
34550;DHT22;66080;52.078;5.626;2023-09-19T08:59:05;17.00;99.90
34550;DHT22;66080;52.078;5.626;2023-09-19T09:01:33;16.90;99.90
34550;DHT22;66080;52.078;5.626;2023-09-19T09:04:01;17.20;99.90
34550;DHT22;66080;52.078;5.626;2023-09-19T09:06:27;17.20;99.90
34550;DHT22;66080;52.078;5.626;2023-09-19T09:08:53;17.30;99.90
34550;DHT22;66080;52.078;5.626;2023-09-19T09:11:20;17.50;99.90
34550;DHT22;66080;52.078;5.626;2023-09-19T09:13:47;17.50;99.90
34550;DHT22;66080;52.078;5.626;2023-09-19T09:16:13;17.50;99.90
34550;DHT22;66080;52.078;5.626;2023-09-19T09:18:42;17.70;99.90
34550;DHT22;66080;52.078;5.626;2023-09-19T09:21:09;17.80;99.90
34550;DHT22;66080;52.078;5.626;2023-09-19T09:23:35;17.70;99.90
34550;DHT22;66080;52.078;5.626;2023-09-19T09:26:01;17.50;99.90
34550;DHT22;66080;52.078;5.626;2023-09-19T09:28:32;17.60;99.90
34550;DHT22;66080;52.078;5.626;2023-09-19T09:30:59;17.90;99.90
34550;DHT22;66080;52.078;5.626;2023-09-19T09:33:28;17.90;99.90
34550;DHT22;66080;52.078;5.626;2023-09-19T09:35:56;18.00;99.90
34550;DHT22;66080;52.078;5.626;2023-09-19T09:38:25;18.10;99.90
34550;DHT22;66080;52.078;5.626;2023-09-19T09:40:55;18.10;99.90
34550;DHT22;66080;52.078;5.626;2023-09-19T09:43:35;18.20;99.90
34550;DHT22;66080;52.078;5.626;2023-09-19T09:46:20;18.30;99.90
34550;DHT22;66080;52.078;5.626;2023-09-19T09:51:42;18.20;99.90
34550;DHT22;66080;52.078;5.626;2023-09-19T09:54:18;18.20;99.90
34550;DHT22;66080;52.078;5.626;2023-09-19T09:56:58;18.20;99.90
34550;DHT22;66080;52.078;5.626;2023-09-19T10:02:28;18.40;99.90
34550;DHT22;66080;52.078;5.626;2023-09-19T10:04:55;18.40;99.90
34550;DHT22;66080;52.078;5.626;2023-09-19T10:07:35;18.70;99.90
34550;DHT22;66080;52.078;5.626;2023-09-19T10:10:04;18.60;99.90
34550;DHT22;66080;52.078;5.626;2023-09-19T10:12:38;18.90;99.90
34550;DHT22;66080;52.078;5.626;2023-09-19T10:15:05;19.00;99.90
34550;DHT22;66080;52.078;5.626;2023-09-19T10:17:34;18.80;99.90
34550;DHT22;66080;52.078;5.626;2023-09-19T10:20:02;19.10;99.90
34550;DHT22;66080;52.078;5.626;2023-09-19T10:22:43;19.30;99.60
34550;DHT22;66080;52.078;5.626;2023-09-19T10:25:10;19.30;99.90
34550;DHT22;66080;52.078;5.626;2023-09-19T10:27:38;19.30;99.90
34550;DHT22;66080;52.078;5.626;2023-09-19T10:30:08;19.40;99.80
34550;DHT22;66080;52.078;5.626;2023-09-19T10:32:35;19.30;99.90
34550;DHT22;66080;52.078;5.626;2023-09-19T10:35:02;19.00;99.90
34550;DHT22;66080;52.078;5.626;2023-09-19T10:37:32;18.90;99.90
34550;DHT22;66080;52.078;5.626;2023-09-19T10:39:59;19.00;99.90
34550;DHT22;66080;52.078;5.626;2023-09-19T10:42:25;18.90;99.90
34550;DHT22;66080;52.078;5.626;2023-09-19T10:44:55;19.00;99.90
34550;DHT22;66080;52.078;5.626;2023-09-19T10:47:25;18.80;99.90
34550;DHT22;66080;52.078;5.626;2023-09-19T10:49:51;18.80;99.90
34550;DHT22;66080;52.078;5.626;2023-09-19T10:52:20;19.30;99.90
34550;DHT22;66080;52.078;5.626;2023-09-19T10:54:51;19.40;99.90
